sensor_id;sensor_type;location;lat;lon;timestamp;temperature;humidity
66831;DHT22;53739;44.224;22.528;2023-04-28T00:01:59;230.40;6502.40
66831;DHT22;53739;44.224;22.528;2023-04-28T00:04:24;230.40;6502.40
66831;DHT22;53739;44.224;22.528;2023-04-28T00:06:51;230.40;6502.40
66831;DHT22;53739;44.224;22.528;2023-04-28T00:09:16;230.40;6502.40
66831;DHT22;53739;44.224;22.528;2023-04-28T00:11:46;230.40;6502.40
66831;DHT22;53739;44.224;22.528;2023-04-28T00:14:12;205.70;6502.40
66831;DHT22;53739;44.224;22.528;2023-04-28T00:16:38;230.40;332.80
66831;DHT22;53739;44.224;22.528;2023-04-28T00:19:04;205.70;128.00
66831;DHT22;53739;44.224;22.528;2023-04-28T00:21:30;230.40;6502.40
66831;DHT22;53739;44.224;22.528;2023-04-28T00:23:56;230.40;6502.40
66831;DHT22;53739;44.224;22.528;2023-04-28T00:26:22;230.40;6502.40
66831;DHT22;53739;44.224;22.528;2023-04-28T00:28:48;205.70;6502.40
66831;DHT22;53739;44.224;22.528;2023-04-28T00:31:14;205.70;6502.40
66831;DHT22;53739;44.224;22.528;2023-04-28T00:33:43;205.60;6502.40
66831;DHT22;53739;44.224;22.528;2023-04-28T00:36:09;205.50;6502.40
66831;DHT22;53739;44.224;22.528;2023-04-28T00:38:36;205.50;6502.40
66831;DHT22;53739;44.224;22.528;2023-04-28T00:41:02;205.40;6502.40
66831;DHT22;53739;44.224;22.528;2023-04-28T01:32:22;205.30;6502.40
66831;DHT22;53739;44.224;22.528;2023-04-28T01:42:07;205.30;6502.40
66831;DHT22;53739;44.224;22.528;2023-04-28T01:44:32;205.00;6502.40
66831;DHT22;53739;44.224;22.528;2023-04-28T01:46:59;205.20;6502.40
66831;DHT22;53739;44.224;22.528;2023-04-28T01:49:25;205.10;6502.40
66831;DHT22;53739;44.224;22.528;2023-04-28T01:51:50;205.10;6502.40
66831;DHT22;53739;44.224;22.528;2023-04-28T01:54:16;205.10;6502.40
66831;DHT22;53739;44.224;22.528;2023-04-28T01:56:42;205.00;6502.40
66831;DHT22;53739;44.224;22.528;2023-04-28T01:59:08;205.00;6502.40
66831;DHT22;53739;44.224;22.528;2023-04-28T02:01:33;205.00;6502.40
66831;DHT22;53739;44.224;22.528;2023-04-28T02:03:59;205.00;6502.40
66831;DHT22;53739;44.224;22.528;2023-04-28T02:06:25;205.00;6502.40
66831;DHT22;53739;44.224;22.528;2023-04-28T02:08:52;205.00;6502.40
66831;DHT22;53739;44.224;22.528;2023-04-28T02:11:18;205.00;6502.40
66831;DHT22;53739;44.224;22.528;2023-04-28T02:13:44;205.00;6502.40
66831;DHT22;53739;44.224;22.528;2023-04-28T02:16:09;205.00;6502.40
66831;DHT22;53739;44.224;22.528;2023-04-28T02:18:35;205.00;128.00
66831;DHT22;53739;44.224;22.528;2023-04-28T02:21:08;205.00;6502.40
66831;DHT22;53739;44.224;22.528;2023-04-28T02:23:35;205.00;6502.40
66831;DHT22;53739;44.224;22.528;2023-04-28T02:26:02;205.00;6502.40
66831;DHT22;53739;44.224;22.528;2023-04-28T02:28:28;205.00;6502.40
66831;DHT22;53739;44.224;22.528;2023-04-28T02:31:08;205.00;6502.40
66831;DHT22;53739;44.224;22.528;2023-04-28T02:33:34;205.00;6502.40
66831;DHT22;53739;44.224;22.528;2023-04-28T02:36:01;205.00;6502.40
66831;DHT22;53739;44.224;22.528;2023-04-28T02:38:27;205.00;6502.40
66831;DHT22;53739;44.224;22.528;2023-04-28T02:40:58;205.00;6502.40
66831;DHT22;53739;44.224;22.528;2023-04-28T02:43:24;205.00;6502.40
66831;DHT22;53739;44.224;22.528;2023-04-28T02:45:50;205.00;6502.40
66831;DHT22;53739;44.224;22.528;2023-04-28T02:48:16;205.00;6502.40
66831;DHT22;53739;44.224;22.528;2023-04-28T02:50:42;204.90;6502.40
66831;DHT22;53739;44.224;22.528;2023-04-28T02:53:08;205.00;6502.40
66831;DHT22;53739;44.224;22.528;2023-04-28T02:55:34;205.00;6502.40
66831;DHT22;53739;44.224;22.528;2023-04-28T02:57:59;205.00;6502.40
66831;DHT22;53739;44.224;22.528;2023-04-28T03:00:25;204.90;6502.40
66831;DHT22;53739;44.224;22.528;2023-04-28T03:02:51;204.90;6502.40
66831;DHT22;53739;44.224;22.528;2023-04-28T03:05:17;204.90;6502.40
66831;DHT22;53739;44.224;22.528;2023-04-28T03:07:43;204.80;6502.40
66831;DHT22;53739;44.224;22.528;2023-04-28T03:10:09;204.90;6502.40
66831;DHT22;53739;44.224;22.528;2023-04-28T03:12:35;204.90;6502.40
66831;DHT22;53739;44.224;22.528;2023-04-28T03:15:01;204.90;6502.40
66831;DHT22;53739;44.224;22.528;2023-04-28T03:17:26;204.90;6502.40
66831;DHT22;53739;44.224;22.528;2023-04-28T03:19:52;204.90;6502.40
66831;DHT22;53739;44.224;22.528;2023-04-28T03:22:18;204.90;486.40
66831;DHT22;53739;44.224;22.528;2023-04-28T03:24:44;204.90;2252.80
66831;DHT22;53739;44.224;22.528;2023-04-28T03:27:09;204.80;6502.40
66831;DHT22;53739;44.224;22.528;2023-04-28T03:29:36;204.80;460.80
66831;DHT22;53739;44.224;22.528;2023-04-28T03:32:01;204.80;6502.40
66831;DHT22;53739;44.224;22.528;2023-04-28T03:34:27;180.10;1612.80
66831;DHT22;53739;44.224;22.528;2023-04-28T03:36:53;180.10;6502.40
66831;DHT22;53739;44.224;22.528;2023-04-28T03:39:19;180.10;2252.80
66831;DHT22;53739;44.224;22.528;2023-04-28T03:41:44;180.10;2252.80
66831;DHT22;53739;44.224;22.528;2023-04-28T03:44:10;180.10;204.80
66831;DHT22;53739;44.224;22.528;2023-04-28T03:46:36;180.10;6502.40
66831;DHT22;53739;44.224;22.528;2023-04-28T03:49:02;180.10;1664.00
66831;DHT22;53739;44.224;22.528;2023-04-28T03:51:28;180.10;2252.80
66831;DHT22;53739;44.224;22.528;2023-04-28T03:53:54;204.80;2252.80
66831;DHT22;53739;44.224;22.528;2023-04-28T03:56:20;204.80;2252.80
66831;DHT22;53739;44.224;22.528;2023-04-28T03:58:46;204.80;2252.80
66831;DHT22;53739;44.224;22.528;2023-04-28T04:01:12;204.90;2252.80
66831;DHT22;53739;44.224;22.528;2023-04-28T04:03:38;204.90;2252.80
66831;DHT22;53739;44.224;22.528;2023-04-28T04:06:04;204.90;2252.80
66831;DHT22;53739;44.224;22.528;2023-04-28T04:08:30;205.00;6502.40
66831;DHT22;53739;44.224;22.528;2023-04-28T04:10:57;205.00;2252.80
66831;DHT22;53739;44.224;22.528;2023-04-28T04:13:23;205.00;2252.80
66831;DHT22;53739;44.224;22.528;2023-04-28T04:15:49;205.10;2252.80
66831;DHT22;53739;44.224;22.528;2023-04-28T04:18:15;205.20;2252.80
66831;DHT22;53739;44.224;22.528;2023-04-28T04:20:41;205.20;2252.80
66831;DHT22;53739;44.224;22.528;2023-04-28T04:23:06;205.20;1996.80
66831;DHT22;53739;44.224;22.528;2023-04-28T04:25:32;205.30;2252.80
66831;DHT22;53739;44.224;22.528;2023-04-28T04:27:59;205.30;2252.80
66831;DHT22;53739;44.224;22.528;2023-04-28T04:30:25;205.30;2252.80
66831;DHT22;53739;44.224;22.528;2023-04-28T04:32:51;205.40;6502.40
66831;DHT22;53739;44.224;22.528;2023-04-28T04:35:17;205.40;6502.40
66831;DHT22;53739;44.224;22.528;2023-04-28T04:37:43;205.50;2252.80
66831;DHT22;53739;44.224;22.528;2023-04-28T04:40:09;205.50;2176.00
66831;DHT22;53739;44.224;22.528;2023-04-28T04:42:35;205.50;2252.80
66831;DHT22;53739;44.224;22.528;2023-04-28T04:45:01;205.60;2252.80
66831;DHT22;53739;44.224;22.528;2023-04-28T04:47:27;205.60;2252.80
66831;DHT22;53739;44.224;22.528;2023-04-28T04:49:53;205.70;2252.80
66831;DHT22;53739;44.224;22.528;2023-04-28T04:52:18;205.70;2073.60
66831;DHT22;53739;44.224;22.528;2023-04-28T04:54:44;230.40;2252.80
66831;DHT22;53739;44.224;22.528;2023-04-28T04:57:11;230.50;2252.80
66831;DHT22;53739;44.224;22.528;2023-04-28T04:59:36;230.60;2252.80
66831;DHT22;53739;44.224;22.528;2023-04-28T05:02:02;230.70;6502.40
66831;DHT22;53739;44.224;22.528;2023-04-28T05:04:28;230.80;2252.80
66831;DHT22;53739;44.224;22.528;2023-04-28T05:06:54;230.90;998.40
66831;DHT22;53739;44.224;22.528;2023-04-28T05:09:19;231.00;256.00
66831;DHT22;53739;44.224;22.528;2023-04-28T05:11:47;231.10;6502.40
66831;DHT22;53739;44.224;22.528;2023-04-28T05:14:13;231.20;6502.40
66831;DHT22;53739;44.224;22.528;2023-04-28T05:16:40;231.30;153.60
66831;DHT22;53739;44.224;22.528;2023-04-28T05:19:06;256.10;512.00
66831;DHT22;53739;44.224;22.528;2023-04-28T05:21:32;256.30;6502.40
66831;DHT22;53739;44.224;22.528;2023-04-28T05:23:58;256.40;6502.40
66831;DHT22;53739;44.224;22.528;2023-04-28T05:26:24;256.70;6502.40
66831;DHT22;53739;44.224;22.528;2023-04-28T05:28:49;256.70;332.80
66831;DHT22;53739;44.224;22.528;2023-04-28T05:31:16;256.90;6502.40
66831;DHT22;53739;44.224;22.528;2023-04-28T05:33:42;281.60;6528.00
66831;DHT22;53739;44.224;22.528;2023-04-28T05:36:08;281.60;6528.00
66831;DHT22;53739;44.224;22.528;2023-04-28T05:38:34;281.70;6528.00
66831;DHT22;53739;44.224;22.528;2023-04-28T05:41:01;282.00;6528.00
66831;DHT22;53739;44.224;22.528;2023-04-28T05:43:27;282.40;6528.00
66831;DHT22;53739;44.224;22.528;2023-04-28T05:45:52;282.50;6528.00
66831;DHT22;53739;44.224;22.528;2023-04-28T05:48:18;307.40;128.00
66831;DHT22;53739;44.224;22.528;2023-04-28T05:50:44;307.60;128.00
66831;DHT22;53739;44.224;22.528;2023-04-28T05:53:10;307.80;128.00
66831;DHT22;53739;44.224;22.528;2023-04-28T05:55:37;308.00;128.00
66831;DHT22;53739;44.224;22.528;2023-04-28T05:58:03;308.10;128.00
66831;DHT22;53739;44.224;22.528;2023-04-28T06:00:29;333.00;128.00
66831;DHT22;53739;44.224;22.528;2023-04-28T06:02:55;333.20;128.00
66831;DHT22;53739;44.224;22.528;2023-04-28T06:05:21;333.30;128.00
66831;DHT22;53739;44.224;22.528;2023-04-28T06:07:47;333.60;128.00
66831;DHT22;53739;44.224;22.528;2023-04-28T06:10:12;358.50;128.00
66831;DHT22;53739;44.224;22.528;2023-04-28T06:12:38;358.60;128.00
66831;DHT22;53739;44.224;22.528;2023-04-28T06:15:04;358.60;128.00
66831;DHT22;53739;44.224;22.528;2023-04-28T06:17:31;358.60;128.00
66831;DHT22;53739;44.224;22.528;2023-04-28T06:19:58;358.80;128.00
66831;DHT22;53739;44.224;22.528;2023-04-28T06:22:26;359.30;128.00
66831;DHT22;53739;44.224;22.528;2023-04-28T06:24:52;384.20;128.00
66831;DHT22;53739;44.224;22.528;2023-04-28T06:27:18;384.40;153.60
66831;DHT22;53739;44.224;22.528;2023-04-28T06:29:44;384.60;128.00
66831;DHT22;53739;44.224;22.528;2023-04-28T06:32:10;359.30;128.00
66831;DHT22;53739;44.224;22.528;2023-04-28T06:34:36;384.40;128.00
66831;DHT22;53739;44.224;22.528;2023-04-28T06:37:02;384.90;128.00
66831;DHT22;53739;44.224;22.528;2023-04-28T06:39:28;409.90;128.00
66831;DHT22;53739;44.224;22.528;2023-04-28T06:41:54;410.00;2355.20
66831;DHT22;53739;44.224;22.528;2023-04-28T06:44:19;410.50;2355.20
66831;DHT22;53739;44.224;22.528;2023-04-28T06:46:45;435.30;1587.20
66831;DHT22;53739;44.224;22.528;2023-04-28T06:49:11;435.50;2355.20
66831;DHT22;53739;44.224;22.528;2023-04-28T06:51:37;435.60;2355.20
66831;DHT22;53739;44.224;22.528;2023-04-28T06:54:02;435.70;2355.20
66831;DHT22;53739;44.224;22.528;2023-04-28T06:56:28;435.90;2355.20
66831;DHT22;53739;44.224;22.528;2023-04-28T06:58:55;460.80;2380.80
66831;DHT22;53739;44.224;22.528;2023-04-28T07:01:21;460.80;2380.80
66831;DHT22;53739;44.224;22.528;2023-04-28T07:03:47;460.90;2380.80
66831;DHT22;53739;44.224;22.528;2023-04-28T07:06:13;460.90;2380.80
66831;DHT22;53739;44.224;22.528;2023-04-28T07:08:42;436.10;2355.20
66831;DHT22;53739;44.224;22.528;2023-04-28T07:11:08;436.10;2355.20
66831;DHT22;53739;44.224;22.528;2023-04-28T07:13:34;460.80;2380.80
66831;DHT22;53739;44.224;22.528;2023-04-28T07:16:00;460.80;2380.80
66831;DHT22;53739;44.224;22.528;2023-04-28T07:18:26;460.80;2380.80
66831;DHT22;53739;44.224;22.528;2023-04-28T07:20:51;436.10;2355.20
66831;DHT22;53739;44.224;22.528;2023-04-28T07:23:17;461.10;2380.80
66831;DHT22;53739;44.224;22.528;2023-04-28T07:25:43;461.30;2176.00
66831;DHT22;53739;44.224;22.528;2023-04-28T07:28:09;461.40;2252.80
66831;DHT22;53739;44.224;22.528;2023-04-28T07:30:35;461.40;2380.80
66831;DHT22;53739;44.224;22.528;2023-04-28T07:33:01;461.50;2380.80
66831;DHT22;53739;44.224;22.528;2023-04-28T07:40:20;486.50;2380.80
66831;DHT22;53739;44.224;22.528;2023-04-28T07:52:33;486.80;2380.80
66831;DHT22;53739;44.224;22.528;2023-04-28T08:29:10;512.00;2380.80
66831;DHT22;53739;44.224;22.528;2023-04-28T08:36:29;512.50;2380.80
66831;DHT22;53739;44.224;22.528;2023-04-28T08:38:58;512.40;2380.80
66831;DHT22;53739;44.224;22.528;2023-04-28T08:41:25;512.40;2380.80
66831;DHT22;53739;44.224;22.528;2023-04-28T08:48:48;487.30;2380.80
66831;DHT22;53739;44.224;22.528;2023-04-28T08:51:33;487.30;2380.80
66831;DHT22;53739;44.224;22.528;2023-04-28T08:54:02;486.90;2380.80
66831;DHT22;53739;44.224;22.528;2023-04-28T08:56:34;461.50;2380.80
66831;DHT22;53739;44.224;22.528;2023-04-28T08:59:02;486.70;2380.80
66831;DHT22;53739;44.224;22.528;2023-04-28T09:01:31;486.50;2380.80
66831;DHT22;53739;44.224;22.528;2023-04-28T09:04:00;486.70;2380.80
66831;DHT22;53739;44.224;22.528;2023-04-28T09:06:34;486.70;2380.80
66831;DHT22;53739;44.224;22.528;2023-04-28T09:11:58;486.70;2380.80
66831;DHT22;53739;44.224;22.528;2023-04-28T09:14:30;486.80;2380.80
66831;DHT22;53739;44.224;22.528;2023-04-28T09:16:56;487.10;2380.80
66831;DHT22;53739;44.224;22.528;2023-04-28T09:19:22;487.30;2380.80
66831;DHT22;53739;44.224;22.528;2023-04-28T09:21:51;487.30;2380.80
66831;DHT22;53739;44.224;22.528;2023-04-28T09:24:39;512.10;2380.80
66831;DHT22;53739;44.224;22.528;2023-04-28T09:27:08;487.20;2380.80
66831;DHT22;53739;44.224;22.528;2023-04-28T09:29:37;512.40;2380.80
66831;DHT22;53739;44.224;22.528;2023-04-28T09:32:20;512.70;2380.80
66831;DHT22;53739;44.224;22.528;2023-04-28T09:34:46;512.90;2380.80
66831;DHT22;53739;44.224;22.528;2023-04-28T09:37:20;512.80;2380.80
66831;DHT22;53739;44.224;22.528;2023-04-28T09:39:47;512.80;2380.80
66831;DHT22;53739;44.224;22.528;2023-04-28T09:42:37;512.60;2150.40
66831;DHT22;53739;44.224;22.528;2023-04-28T09:47:31;512.60;2380.80
66831;DHT22;53739;44.224;22.528;2023-04-28T09:50:00;512.80;2380.80
66831;DHT22;53739;44.224;22.528;2023-04-28T09:52:27;512.90;2380.80
66831;DHT22;53739;44.224;22.528;2023-04-28T09:54:54;512.90;2380.80
66831;DHT22;53739;44.224;22.528;2023-04-28T09:57:24;512.80;2380.80
66831;DHT22;53739;44.224;22.528;2023-04-28T09:59:51;512.60;2380.80
66831;DHT22;53739;44.224;22.528;2023-04-28T10:02:19;512.70;2380.80
66831;DHT22;53739;44.224;22.528;2023-04-28T10:04:47;512.70;2380.80
66831;DHT22;53739;44.224;22.528;2023-04-28T10:07:14;512.90;2380.80
66831;DHT22;53739;44.224;22.528;2023-04-28T10:09:42;537.80;2406.40
66831;DHT22;53739;44.224;22.528;2023-04-28T10:12:22;537.70;2201.60
66831;DHT22;53739;44.224;22.528;2023-04-28T10:14:49;537.70;2406.40
66831;DHT22;53739;44.224;22.528;2023-04-28T10:17:16;537.70;2406.40
66831;DHT22;53739;44.224;22.528;2023-04-28T10:19:46;537.70;2406.40
66831;DHT22;53739;44.224;22.528;2023-04-28T10:25:34;537.80;2406.40
66831;DHT22;53739;44.224;22.528;2023-04-28T10:28:05;512.00;2380.80
66831;DHT22;53739;44.224;22.528;2023-04-28T10:30:32;487.00;2380.80
66831;DHT22;53739;44.224;22.528;2023-04-28T10:35:54;512.00;2380.80
66831;DHT22;53739;44.224;22.528;2023-04-28T10:38:20;512.30;2380.80
66831;DHT22;53739;44.224;22.528;2023-04-28T10:40:51;512.40;2380.80
66831;DHT22;53739;44.224;22.528;2023-04-28T10:56:13;537.60;2406.40
66831;DHT22;53739;44.224;22.528;2023-04-28T10:58:41;537.70;2406.40
66831;DHT22;53739;44.224;22.528;2023-04-28T11:08:48;538.30;2406.40
66831;DHT22;53739;44.224;22.528;2023-04-28T11:11:21;563.20;2432.00
66831;DHT22;53739;44.224;22.528;2023-04-28T11:13:48;538.00;2406.40
66831;DHT22;53739;44.224;22.528;2023-04-28T11:16:16;537.70;2406.40
66831;DHT22;53739;44.224;22.528;2023-04-28T11:18:53;538.00;2406.40
66831;DHT22;53739;44.224;22.528;2023-04-28T11:21:20;537.80;2176.00
66831;DHT22;53739;44.224;22.528;2023-04-28T11:23:50;538.10;2406.40
66831;DHT22;53739;44.224;22.528;2023-04-28T11:26:16;538.30;2124.80
66831;DHT22;53739;44.224;22.528;2023-04-28T11:28:54;538.20;2406.40
66831;DHT22;53739;44.224;22.528;2023-04-28T11:31:22;538.40;2329.60
66831;DHT22;53739;44.224;22.528;2023-04-28T11:33:52;538.10;2406.40
66831;DHT22;53739;44.224;22.528;2023-04-28T11:36:28;538.30;2406.40
66831;DHT22;53739;44.224;22.528;2023-04-28T11:38:55;538.30;2406.40
66831;DHT22;53739;44.224;22.528;2023-04-28T11:41:24;538.30;2406.40
66831;DHT22;53739;44.224;22.528;2023-04-28T11:43:51;538.30;2406.40
66831;DHT22;53739;44.224;22.528;2023-04-28T11:46:21;538.30;2406.40
66831;DHT22;53739;44.224;22.528;2023-04-28T11:48:47;537.80;2406.40
66831;DHT22;53739;44.224;22.528;2023-04-28T11:51:33;512.90;2380.80
66831;DHT22;53739;44.224;22.528;2023-04-28T11:53:59;537.90;2406.40
66831;DHT22;53739;44.224;22.528;2023-04-28T11:56:26;538.30;2406.40
66831;DHT22;53739;44.224;22.528;2023-04-28T11:58:59;538.50;2406.40
66831;DHT22;53739;44.224;22.528;2023-04-28T12:01:26;538.20;2406.40
66831;DHT22;53739;44.224;22.528;2023-04-28T12:03:51;538.30;2406.40
66831;DHT22;53739;44.224;22.528;2023-04-28T12:06:17;538.40;2406.40
66831;DHT22;53739;44.224;22.528;2023-04-28T12:08:43;538.50;2406.40
66831;DHT22;53739;44.224;22.528;2023-04-28T12:11:11;563.30;2432.00
66831;DHT22;53739;44.224;22.528;2023-04-28T12:13:40;563.30;2432.00
66831;DHT22;53739;44.224;22.528;2023-04-28T12:16:06;563.30;2432.00
66831;DHT22;53739;44.224;22.528;2023-04-28T12:18:34;538.50;2406.40
66831;DHT22;53739;44.224;22.528;2023-04-28T12:21:01;563.20;2432.00
66831;DHT22;53739;44.224;22.528;2023-04-28T12:23:34;563.20;2432.00
66831;DHT22;53739;44.224;22.528;2023-04-28T12:26:01;538.30;2406.40
66831;DHT22;53739;44.224;22.528;2023-04-28T12:28:38;538.50;2406.40
66831;DHT22;53739;44.224;22.528;2023-04-28T12:31:05;538.00;2406.40
66831;DHT22;53739;44.224;22.528;2023-04-28T12:33:34;538.10;2406.40
66831;DHT22;53739;44.224;22.528;2023-04-28T12:36:03;537.60;2406.40
66831;DHT22;53739;44.224;22.528;2023-04-28T12:38:29;537.80;2406.40
66831;DHT22;53739;44.224;22.528;2023-04-28T12:40:55;538.10;2406.40
66831;DHT22;53739;44.224;22.528;2023-04-28T12:43:21;537.80;2406.40
66831;DHT22;53739;44.224;22.528;2023-04-28T12:45:53;512.80;2380.80
66831;DHT22;53739;44.224;22.528;2023-04-28T12:48:19;512.50;2380.80
66831;DHT22;53739;44.224;22.528;2023-04-28T12:50:46;512.90;2380.80
66831;DHT22;53739;44.224;22.528;2023-04-28T12:53:12;512.90;2380.80
66831;DHT22;53739;44.224;22.528;2023-04-28T12:55:38;537.80;2406.40
66831;DHT22;53739;44.224;22.528;2023-04-28T12:58:05;538.10;2252.80
66831;DHT22;53739;44.224;22.528;2023-04-28T13:00:31;538.20;2406.40
66831;DHT22;53739;44.224;22.528;2023-04-28T13:02:57;538.40;2406.40
66831;DHT22;53739;44.224;22.528;2023-04-28T13:05:23;538.40;2406.40
66831;DHT22;53739;44.224;22.528;2023-04-28T13:07:49;538.30;2406.40
66831;DHT22;53739;44.224;22.528;2023-04-28T13:10:15;537.70;2406.40
66831;DHT22;53739;44.224;22.528;2023-04-28T13:12:42;538.00;2406.40
66831;DHT22;53739;44.224;22.528;2023-04-28T13:15:08;538.20;2406.40
66831;DHT22;53739;44.224;22.528;2023-04-28T13:17:34;538.50;2406.40
66831;DHT22;53739;44.224;22.528;2023-04-28T13:20:00;538.50;2406.40
66831;DHT22;53739;44.224;22.528;2023-04-28T13:22:29;563.20;2432.00
66831;DHT22;53739;44.224;22.528;2023-04-28T13:24:55;538.40;2406.40
66831;DHT22;53739;44.224;22.528;2023-04-28T13:27:21;538.50;2406.40
66831;DHT22;53739;44.224;22.528;2023-04-28T13:29:47;537.80;2406.40
66831;DHT22;53739;44.224;22.528;2023-04-28T13:32:12;537.80;2406.40
66831;DHT22;53739;44.224;22.528;2023-04-28T13:34:38;538.00;2406.40
66831;DHT22;53739;44.224;22.528;2023-04-28T13:37:04;538.00;2406.40
66831;DHT22;53739;44.224;22.528;2023-04-28T13:39:31;537.80;2406.40
66831;DHT22;53739;44.224;22.528;2023-04-28T13:41:57;538.00;2406.40
66831;DHT22;53739;44.224;22.528;2023-04-28T13:44:23;538.20;2406.40
66831;DHT22;53739;44.224;22.528;2023-04-28T13:46:49;538.40;2406.40
66831;DHT22;53739;44.224;22.528;2023-04-28T13:49:14;538.50;2406.40
66831;DHT22;53739;44.224;22.528;2023-04-28T13:51:40;563.30;2432.00
66831;DHT22;53739;44.224;22.528;2023-04-28T13:54:06;563.30;2432.00
66831;DHT22;53739;44.224;22.528;2023-04-28T13:56:36;538.50;2406.40
66831;DHT22;53739;44.224;22.528;2023-04-28T13:59:02;538.40;2406.40
66831;DHT22;53739;44.224;22.528;2023-04-28T14:01:28;538.40;2406.40
66831;DHT22;53739;44.224;22.528;2023-04-28T14:03:54;563.20;2432.00
66831;DHT22;53739;44.224;22.528;2023-04-28T14:06:20;538.50;2406.40
66831;DHT22;53739;44.224;22.528;2023-04-28T14:08:46;538.30;2406.40
66831;DHT22;53739;44.224;22.528;2023-04-28T14:11:12;538.10;2406.40
66831;DHT22;53739;44.224;22.528;2023-04-28T14:13:38;537.80;2406.40
66831;DHT22;53739;44.224;22.528;2023-04-28T14:16:04;538.20;2406.40
66831;DHT22;53739;44.224;22.528;2023-04-28T14:18:29;538.00;2406.40
66831;DHT22;53739;44.224;22.528;2023-04-28T14:20:57;538.00;2406.40
66831;DHT22;53739;44.224;22.528;2023-04-28T14:23:23;538.20;2406.40
66831;DHT22;53739;44.224;22.528;2023-04-28T14:25:48;538.40;2406.40
66831;DHT22;53739;44.224;22.528;2023-04-28T14:28:14;538.10;2406.40
66831;DHT22;53739;44.224;22.528;2023-04-28T14:30:41;538.20;2406.40
66831;DHT22;53739;44.224;22.528;2023-04-28T14:33:07;538.30;2406.40
66831;DHT22;53739;44.224;22.528;2023-04-28T14:35:33;538.50;2406.40
66831;DHT22;53739;44.224;22.528;2023-04-28T14:37:59;563.20;2432.00
66831;DHT22;53739;44.224;22.528;2023-04-28T14:40:25;538.50;2406.40
66831;DHT22;53739;44.224;22.528;2023-04-28T14:42:51;538.30;2406.40
66831;DHT22;53739;44.224;22.528;2023-04-28T14:45:17;538.10;2406.40
66831;DHT22;53739;44.224;22.528;2023-04-28T14:47:44;538.30;2406.40
66831;DHT22;53739;44.224;22.528;2023-04-28T14:50:10;538.10;2406.40
66831;DHT22;53739;44.224;22.528;2023-04-28T14:52:36;538.10;2406.40
66831;DHT22;53739;44.224;22.528;2023-04-28T14:55:02;538.10;2406.40
66831;DHT22;53739;44.224;22.528;2023-04-28T14:57:29;538.10;2406.40
66831;DHT22;53739;44.224;22.528;2023-04-28T14:59:55;538.10;2406.40
66831;DHT22;53739;44.224;22.528;2023-04-28T15:02:22;538.10;2406.40
66831;DHT22;53739;44.224;22.528;2023-04-28T15:04:54;538.10;2406.40
66831;DHT22;53739;44.224;22.528;2023-04-28T15:07:21;538.00;2406.40
66831;DHT22;53739;44.224;22.528;2023-04-28T15:09:48;538.00;2406.40
66831;DHT22;53739;44.224;22.528;2023-04-28T15:12:13;538.00;2406.40
66831;DHT22;53739;44.224;22.528;2023-04-28T15:14:39;537.90;2406.40
66831;DHT22;53739;44.224;22.528;2023-04-28T15:17:05;537.70;2406.40
66831;DHT22;53739;44.224;22.528;2023-04-28T15:19:31;537.80;2406.40
66831;DHT22;53739;44.224;22.528;2023-04-28T15:21:57;537.70;2406.40
66831;DHT22;53739;44.224;22.528;2023-04-28T15:24:22;537.60;2406.40
66831;DHT22;53739;44.224;22.528;2023-04-28T15:26:48;537.70;2406.40
66831;DHT22;53739;44.224;22.528;2023-04-28T15:29:14;537.70;2406.40
66831;DHT22;53739;44.224;22.528;2023-04-28T15:31:41;537.60;2406.40
66831;DHT22;53739;44.224;22.528;2023-04-28T15:34:07;512.90;2380.80
66831;DHT22;53739;44.224;22.528;2023-04-28T15:36:37;512.80;2380.80
66831;DHT22;53739;44.224;22.528;2023-04-28T15:39:06;512.70;2380.80
66831;DHT22;53739;44.224;22.528;2023-04-28T15:41:33;512.60;2380.80
66831;DHT22;53739;44.224;22.528;2023-04-28T15:44:00;512.50;2380.80
66831;DHT22;53739;44.224;22.528;2023-04-28T15:46:26;512.30;2380.80
66831;DHT22;53739;44.224;22.528;2023-04-28T15:48:52;512.30;2380.80
66831;DHT22;53739;44.224;22.528;2023-04-28T15:51:19;512.20;2380.80
66831;DHT22;53739;44.224;22.528;2023-04-28T15:53:45;512.00;2380.80
66831;DHT22;53739;44.224;22.528;2023-04-28T15:56:11;487.30;2380.80
66831;DHT22;53739;44.224;22.528;2023-04-28T15:58:37;487.30;2380.80
66831;DHT22;53739;44.224;22.528;2023-04-28T16:01:03;487.10;2380.80
66831;DHT22;53739;44.224;22.528;2023-04-28T16:03:29;487.10;2380.80
66831;DHT22;53739;44.224;22.528;2023-04-28T16:05:55;487.00;2380.80
66831;DHT22;53739;44.224;22.528;2023-04-28T16:08:21;486.90;2380.80
66831;DHT22;53739;44.224;22.528;2023-04-28T16:10:50;486.80;2380.80
66831;DHT22;53739;44.224;22.528;2023-04-28T16:13:20;486.80;2380.80
66831;DHT22;53739;44.224;22.528;2023-04-28T16:15:46;486.80;2380.80
66831;DHT22;53739;44.224;22.528;2023-04-28T16:18:15;486.70;2380.80
66831;DHT22;53739;44.224;22.528;2023-04-28T16:20:41;486.60;2380.80
66831;DHT22;53739;44.224;22.528;2023-04-28T16:23:07;486.60;2380.80
66831;DHT22;53739;44.224;22.528;2023-04-28T16:25:36;486.40;2380.80
66831;DHT22;53739;44.224;22.528;2023-04-28T16:28:02;486.40;2380.80
66831;DHT22;53739;44.224;22.528;2023-04-28T16:30:28;486.40;2380.80
66831;DHT22;53739;44.224;22.528;2023-04-28T16:32:54;461.70;2380.80
66831;DHT22;53739;44.224;22.528;2023-04-28T16:35:25;461.60;2380.80
66831;DHT22;53739;44.224;22.528;2023-04-28T16:37:51;461.50;2380.80
66831;DHT22;53739;44.224;22.528;2023-04-28T16:40:17;461.40;2380.80
66831;DHT22;53739;44.224;22.528;2023-04-28T16:42:43;461.30;2380.80
66831;DHT22;53739;44.224;22.528;2023-04-28T16:45:12;461.20;2380.80
66831;DHT22;53739;44.224;22.528;2023-04-28T16:47:39;461.20;2380.80
66831;DHT22;53739;44.224;22.528;2023-04-28T16:50:09;461.10;2380.80
66831;DHT22;53739;44.224;22.528;2023-04-28T16:52:36;461.00;2380.80
66831;DHT22;53739;44.224;22.528;2023-04-28T17:02:21;436.10;2355.20
66831;DHT22;53739;44.224;22.528;2023-04-28T17:04:47;436.00;2355.20
66831;DHT22;53739;44.224;22.528;2023-04-28T17:07:12;435.80;2355.20
66831;DHT22;53739;44.224;22.528;2023-04-28T17:09:38;435.70;2355.20